Time;durP1;ratioP1;P1;durP2;ratioP2;P2;SDS_P1;SDS_P2;PMS_P1;PMS_P2;Temp;Humidity;BMP_temperature;BMP_pressure;BME280_temperature;BME280_humidity;BME280_pressure;Samples;Min_cycle;Max_cycle;Signal;HPM_P1;HPM_P2
2022/03/16 05:39:43;;;;;;;26.17;19.03;;;7.00;98.00;;;;;;4983499;28;20172;-88
2022/03/16 05:49:25;;;;;;;24.00;17.47;;;6.80;97.30;;;;;;4974615;28;20185;-89
2022/03/16 05:51:52;;;;;;;23.97;19.33;;;6.80;97.50;;;;;;4955298;29;20237;-88
2022/03/16 05:54:22;;;;;;;22.60;19.10;;;6.80;97.70;;;;;;4961974;28;20197;-88
2022/03/16 05:56:49;;;;;;;25.60;20.10;;;6.80;97.70;;;;;;4971317;28;20232;-88
2022/03/16 05:59:16;;;;;;;23.87;19.10;;;6.80;97.90;;;;;;4958263;28;20216;-88
2022/03/16 06:01:43;;;;;;;25.43;20.63;;;6.90;97.80;;;;;;4957852;28;20313;-88
2022/03/16 06:04:10;;;;;;;24.87;20.10;;;6.80;98.00;;;;;;4979155;28;20223;-87
2022/03/16 06:06:45;;;;;;;26.67;19.60;;;6.80;97.90;;;;;;4957178;28;20228;-87
2022/03/16 06:09:12;;;;;;;26.10;20.37;;;6.80;98.10;;;;;;4977154;28;20207;-87
2022/03/16 06:18:24;;;;;;;26.77;21.17;;;6.80;98.10;;;;;;4984995;28;20204;-87
2022/03/16 06:20:51;;;;;;;26.00;20.73;;;6.70;98.50;;;;;;4984007;28;20232;-89
2022/03/16 06:23:21;;;;;;;25.63;20.20;;;6.80;98.30;;;;;;4988157;28;20216;-88
2022/03/16 06:25:51;;;;;;;25.67;20.53;;;6.80;98.20;;;;;;4977862;28;20239;-89
2022/03/16 06:28:19;;;;;;;27.67;20.80;;;6.80;98.20;;;;;;4978251;28;20197;-90
2022/03/16 06:30:46;;;;;;;26.47;21.23;;;6.80;98.20;;;;;;4970807;28;20246;-91
2022/03/16 06:36:35;;;;;;;26.47;20.30;;;6.90;98.10;;;;;;4984591;28;20235;-90
2022/03/16 06:39:28;;;;;;;27.53;20.40;;;7.10;97.80;;;;;;4962742;28;20216;-90
2022/03/16 06:41:56;;;;;;;25.08;19.30;;;7.00;97.50;;;;;;4984932;28;20753;-90
2022/03/16 06:44:23;;;;;;;25.13;19.63;;;7.10;97.20;;;;;;4966575;28;20220;-90
2022/03/16 06:46:51;;;;;;;27.90;21.87;;;7.10;97.00;;;;;;4966439;28;20230;-91
2022/03/16 06:49:18;;;;;;;26.70;20.47;;;7.10;97.00;;;;;;4966190;28;20601;-90
2022/03/16 06:51:45;;;;;;;23.60;18.90;;;7.40;96.50;;;;;;4983259;28;20236;-90
2022/03/16 06:54:12;;;;;;;31.67;22.80;;;7.30;95.80;;;;;;4972131;28;20233;-90
2022/03/16 07:17:37;;;;;;;24.47;19.93;;;7.10;94.70;;;;;;5127395;23;20230;-90
2022/03/16 07:20:06;;;;;;;25.70;20.80;;;7.10;94.90;;;;;;5026991;28;20580;-91
2022/03/16 07:22:41;;;;;;;27.20;21.27;;;7.10;95.00;;;;;;5022392;28;20577;-87
2022/03/16 07:25:15;;;;;;;25.43;20.80;;;7.30;95.60;;;;;;5019923;28;20222;-87
2022/03/16 07:27:43;;;;;;;24.83;20.27;;;7.40;94.50;;;;;;5016384;28;20266;-86
2022/03/16 07:30:20;;;;;;;26.43;21.67;;;7.40;93.80;;;;;;5021198;28;20318;-88
2022/03/16 07:33:02;;;;;;;27.67;21.90;;;7.30;93.90;;;;;;5019622;28;20199;-89
2022/03/16 07:35:48;;;;;;;24.57;20.13;;;7.30;94.00;;;;;;5024188;28;20234;-87
2022/03/16 07:38:15;;;;;;;24.77;20.33;;;7.20;93.90;;;;;;5026464;28;20563;-88
2022/03/16 07:40:54;;;;;;;28.03;22.13;;;7.20;94.50;;;;;;5024364;28;20227;-88
2022/03/16 07:43:22;;;;;;;25.27;21.30;;;7.20;94.10;;;;;;5025437;28;20234;-88
2022/03/16 07:49:21;;;;;;;22.90;19.63;;;7.30;94.20;;;;;;5015198;28;20819;-87
2022/03/16 07:51:51;;;;;;;26.80;19.97;;;7.40;93.80;;;;;;5023969;28;20314;-91
2022/03/16 07:54:18;;;;;;;24.33;20.20;;;7.30;93.00;;;;;;5026987;28;20222;-90
2022/03/16 07:56:55;;;;;;;25.10;20.00;;;7.30;93.50;;;;;;5042971;23;20235;-90
2022/03/16 07:59:32;;;;;;;23.73;19.73;;;7.30;93.20;;;;;;5043080;28;20187;-88
2022/03/16 08:02:00;;;;;;;23.37;19.80;;;7.20;92.90;;;;;;5018056;28;20220;-91
2022/03/16 08:08:08;;;;;;;24.60;19.13;;;7.30;92.90;;;;;;5013158;28;20735;-89
2022/03/16 08:10:37;;;;;;;22.83;18.33;;;7.20;93.30;;;;;;5000083;28;20727;-91
2022/03/16 08:13:05;;;;;;;21.40;17.90;;;7.20;93.00;;;;;;5023082;28;20203;-89
2022/03/16 08:15:47;;;;;;;20.60;17.47;;;7.20;92.60;;;;;;5021181;28;20237;-90
2022/03/16 08:18:16;;;;;;;21.80;18.00;;;7.30;92.40;;;;;;5010832;28;20205;-89
2022/03/16 08:20:48;;;;;;;22.07;18.60;;;7.30;92.70;;;;;;5021598;28;20302;-89
2022/03/16 08:23:41;;;;;;;23.07;19.37;;;7.30;92.50;;;;;;4998993;28;20229;-92
2022/03/16 08:28:53;;;;;;;21.77;18.23;;;7.40;92.40;;;;;;5026007;28;20650;-89
2022/03/16 08:31:22;;;;;;;21.33;17.90;;;7.50;91.80;;;;;;5003463;28;20231;-91
2022/03/16 08:33:52;;;;;;;23.13;18.93;;;7.40;92.20;;;;;;5022057;28;20208;-91
2022/03/16 08:46:03;;;;;;;23.73;19.50;;;7.50;92.20;;;;;;5014074;28;20253;-91
2022/03/16 08:48:32;;;;;;;21.42;18.65;;;7.50;92.30;;;;;;5015125;28;20237;-91
2022/03/16 08:51:01;;;;;;;21.73;18.67;;;7.60;92.30;;;;;;4998523;28;20232;-91
2022/03/16 08:53:29;;;;;;;21.38;18.65;;;7.70;91.90;;;;;;5021893;28;20209;-88
2022/03/16 08:56:11;;;;;;;23.10;19.55;;;7.70;91.90;;;;;;4985216;28;20240;-89
2022/03/16 08:58:44;;;;;;;26.77;20.00;;;7.60;92.00;;;;;;5005575;28;20204;-90
2022/03/16 09:01:12;;;;;;;22.70;18.02;;;7.50;92.40;;;;;;4990293;28;20216;-90
2022/03/16 09:03:59;;;;;;;22.17;17.60;;;7.50;92.20;;;;;;4984854;28;20247;-89
2022/03/16 09:06:32;;;;;;;21.45;18.60;;;7.50;92.40;;;;;;4989233;28;20268;-90
2022/03/16 09:08:59;;;;;;;22.60;18.03;;;7.40;92.40;;;;;;5012044;28;20220;-90
2022/03/16 09:11:26;;;;;;;23.70;19.42;;;7.50;93.00;;;;;;4992837;28;20302;-88
2022/03/16 09:14:06;;;;;;;22.88;18.85;;;7.40;92.40;;;;;;5007463;28;20231;-88
2022/03/16 09:19:27;;;;;;;21.13;17.33;;;7.40;92.70;;;;;;5002647;28;20195;-89
2022/03/16 09:21:54;;;;;;;21.40;18.20;;;7.50;91.90;;;;;;4973834;28;20227;-89
2022/03/16 09:24:24;;;;;;;21.17;18.07;;;7.50;91.80;;;;;;5011300;28;20267;-90
2022/03/16 09:26:51;;;;;;;23.10;18.20;;;7.60;92.00;;;;;;4994845;28;20232;-90
2022/03/16 09:29:20;;;;;;;22.10;17.43;;;7.60;91.80;;;;;;5011276;28;20223;-89
2022/03/16 09:31:47;;;;;;;23.35;18.23;;;7.70;92.10;;;;;;5006233;28;20234;-89
2022/03/16 09:34:16;;;;;;;22.20;18.48;;;7.80;92.00;;;;;;4994980;28;20208;-89
2022/03/16 09:36:45;;;;;;;19.55;17.15;;;7.90;91.90;;;;;;5005473;28;20220;-91
2022/03/16 09:39:13;;;;;;;21.80;17.85;;;8.00;91.60;;;;;;5008753;28;20200;-89
2022/03/16 09:41:50;;;;;;;23.48;18.42;;;8.10;91.50;;;;;;5008337;28;20224;-90
2022/03/16 09:44:23;;;;;;;19.67;17.40;;;8.10;91.10;;;;;;4987735;28;20290;-90
2022/03/16 09:46:59;;;;;;;21.15;18.38;;;8.00;91.00;;;;;;4978836;28;20259;-89
2022/03/16 09:49:33;;;;;;;21.15;17.83;;;8.00;91.40;;;;;;5002371;28;20230;-90
2022/03/16 09:52:01;;;;;;;21.75;17.00;;;8.10;90.90;;;;;;4987658;28;20217;-90
2022/03/16 09:54:31;;;;;;;21.27;16.67;;;8.00;90.80;;;;;;5003184;28;20224;-89
2022/03/16 09:57:05;;;;;;;21.08;17.17;;;8.00;91.00;;;;;;4992855;28;20268;-90
2022/03/16 09:59:34;;;;;;;19.45;17.02;;;7.90;91.80;;;;;;5009065;28;20239;-91
2022/03/16 10:02:09;;;;;;;21.20;17.30;;;8.00;91.20;;;;;;5011261;28;20204;-89
2022/03/16 10:04:38;;;;;;;21.25;17.05;;;8.10;91.30;;;;;;5009764;28;20211;-89
2022/03/16 10:07:07;;;;;;;20.17;17.33;;;8.20;91.00;;;;;;5009674;28;20231;-88
2022/03/16 10:15:32;;;;;;;20.55;17.05;;;8.00;91.00;;;;;;5010238;28;20238;-90
2022/03/16 10:18:02;;;;;;;22.03;17.87;;;7.60;92.00;;;;;;5006166;28;20259;-88
2022/03/16 10:20:32;;;;;;;21.25;17.55;;;7.40;92.70;;;;;;5006482;28;20598;-88
2022/03/16 10:23:04;;;;;;;20.37;17.40;;;7.60;92.10;;;;;;4993639;28;20204;-89
2022/03/16 10:25:35;;;;;;;24.53;17.87;;;7.70;91.80;;;;;;5005549;28;20231;-88
2022/03/16 10:28:21;;;;;;;22.48;17.33;;;7.90;92.20;;;;;;4985925;28;20254;-89
2022/03/16 10:31:01;;;;;;;20.37;16.97;;;8.00;91.30;;;;;;5007653;28;20274;-88
2022/03/16 10:33:32;;;;;;;24.75;18.55;;;7.80;91.70;;;;;;5008843;28;20199;-89
2022/03/16 10:36:04;;;;;;;21.43;18.07;;;7.60;92.40;;;;;;5001370;28;20691;-89
2022/03/16 10:38:37;;;;;;;21.92;17.25;;;7.70;92.60;;;;;;4971775;28;20214;-90
2022/03/16 10:46:34;;;;;;;21.93;18.60;;;7.70;92.70;;;;;;5006572;28;20219;-89
2022/03/16 10:46:52;;;;;;;22.80;17.48;;;7.60;93.40;;;;;;4987657;28;20242;-90
2022/03/16 10:49:21;;;;;;;22.83;18.60;;;7.50;93.90;;;;;;5000943;28;20200;-88
2022/03/16 10:52:01;;;;;;;24.25;19.52;;;7.60;93.60;;;;;;4999649;28;20222;-87
2022/03/16 10:54:30;;;;;;;26.70;19.80;;;7.90;93.00;;;;;;5003049;28;20202;-91
2022/03/16 10:57:00;;;;;;;23.15;19.80;;;8.00;92.60;;;;;;5008442;28;20559;-89
2022/03/16 10:59:30;;;;;;;27.58;20.05;;;7.70;93.20;;;;;;5008294;28;20215;-89
2022/03/16 11:02:06;;;;;;;22.13;19.10;;;7.70;93.50;;;;;;5006498;28;20247;-89
2022/03/16 11:04:35;;;;;;;24.42;19.92;;;7.90;93.00;;;;;;5005296;28;20222;-90
2022/03/16 11:09:46;;;;;;;24.90;21.00;;;8.00;93.00;;;;;;5007625;28;20223;-89
2022/03/16 11:15:16;;;;;;;23.73;20.08;;;8.10;93.30;;;;;;5003899;28;20302;-89
2022/03/16 11:17:47;;;;;;;24.60;20.05;;;8.30;93.10;;;;;;5004517;28;20206;-88
2022/03/16 11:27:42;;;;;;;22.08;18.42;;;9.10;90.50;;;;;;4990061;28;20307;-89
2022/03/16 11:33:33;;;;;;;22.67;18.55;;;9.20;88.20;;;;;;4995284;28;20235;-89
2022/03/16 12:10:22;;;;;;;16.23;14.20;;;9.40;86.10;;;;;;4976768;28;20231;-89
2022/03/16 12:12:51;;;;;;;15.75;14.05;;;9.20;88.70;;;;;;4982506;28;20195;-89
2022/03/16 12:19:20;;;;;;;15.98;14.25;;;9.80;85.30;;;;;;5016412;28;20187;-91
2022/03/16 12:22:14;;;;;;;15.15;12.93;;;10.60;79.50;;;;;;5007313;28;20240;-88
2022/03/16 12:30:26;;;;;;;16.63;14.43;;;10.80;75.40;;;;;;5012421;28;20315;-89
2022/03/16 12:34:05;;;;;;;14.90;13.40;;;10.10;76.70;;;;;;5013253;28;20191;-91
2022/03/16 13:15:40;;;;;;;18.33;13.88;;;11.10;70.30;;;;;;4992592;28;20204;-90
2022/03/16 13:53:19;;;;;;;15.75;14.07;;;10.40;73.50;;;;;;4921542;29;20286;-89
2022/03/16 13:56:19;;;;;;;15.00;13.50;;;10.50;73.50;;;;;;4898164;29;20235;-89
2022/03/16 14:37:31;;;;;;;15.50;13.63;;;10.50;67.60;;;;;;4976353;28;20255;-90
2022/03/16 14:40:01;;;;;;;16.70;14.57;;;10.30;70.00;;;;;;4966091;28;20269;-90
2022/03/16 14:52:25;;;;;;;17.65;15.77;;;10.50;73.60;;;;;;4983948;28;20238;-89
2022/03/16 14:55:01;;;;;;;17.98;16.08;;;10.40;73.50;;;;;;4987514;28;20214;-90
2022/03/16 14:57:28;;;;;;;18.67;16.02;;;10.30;73.30;;;;;;5001354;28;20219;-89
2022/03/16 15:00:12;;;;;;;19.27;17.30;;;10.10;75.40;;;;;;4998898;28;20289;-89
2022/03/16 15:03:32;;;;;;;21.70;17.88;;;10.10;76.70;;;;;;4993417;28;20218;-91
2022/03/16 15:27:19;;;;;;;22.83;18.40;;;10.20;79.20;;;;;;5000155;28;20224;-93
2022/03/16 15:45:45;;;;;;;21.92;17.95;;;9.90;83.80;;;;;;4980012;28;20247;-91
2022/03/16 15:49:20;;;;;;;20.73;18.30;;;9.80;84.20;;;;;;4945934;29;20629;-92
2022/03/16 16:12:42;;;;;;;22.65;19.20;;;9.90;85.10;;;;;;4994340;28;20238;-91
2022/03/16 16:16:03;;;;;;;21.63;19.33;;;9.80;85.50;;;;;;5030884;28;20270;-91
2022/03/16 16:35:17;;;;;;;23.23;19.02;;;9.60;84.40;;;;;;5020626;28;20210;-88
2022/03/16 16:38:03;;;;;;;21.95;19.63;;;9.60;84.30;;;;;;5031408;28;20259;-92
2022/03/16 16:40:38;;;;;;;22.13;18.83;;;9.50;84.30;;;;;;5030135;28;20199;-92
2022/03/16 17:07:47;;;;;;;21.90;19.40;;;9.00;87.00;;;;;;4984419;28;20198;-90
2022/03/16 17:10:29;;;;;;;22.23;19.70;;;9.00;87.70;;;;;;4989697;28;20228;-91
2022/03/16 17:19:20;;;;;;;21.33;19.02;;;8.80;88.40;;;;;;5000889;28;20211;-90
2022/03/16 17:47:25;;;;;;;24.75;21.40;;;8.50;90.40;;;;;;4987453;28;20848;-90
2022/03/16 17:53:02;;;;;;;25.13;20.88;;;8.30;90.80;;;;;;4980019;28;20207;-91
2022/03/16 17:58:17;;;;;;;22.42;19.90;;;8.30;91.30;;;;;;4986119;28;20228;-89
2022/03/16 18:00:46;;;;;;;24.50;21.38;;;8.30;91.40;;;;;;4989572;28;20272;-92
2022/03/16 18:03:37;;;;;;;24.25;21.42;;;8.20;91.30;;;;;;4993579;28;20304;-90
2022/03/16 18:06:06;;;;;;;24.00;21.17;;;8.20;91.60;;;;;;4991470;28;20271;-89
2022/03/16 18:33:10;;;;;;;28.55;22.20;;;7.90;93.90;;;;;;4990834;28;20256;-89
2022/03/16 18:35:46;;;;;;;26.30;22.42;;;7.80;94.10;;;;;;4981459;28;20235;-89
2022/03/16 18:41:04;;;;;;;27.00;23.52;;;7.70;94.60;;;;;;4984601;28;20714;-90
2022/03/16 18:43:33;;;;;;;29.67;24.63;;;7.60;94.50;;;;;;4980922;28;20209;-89
2022/03/16 18:46:03;;;;;;;28.25;23.95;;;7.60;94.50;;;;;;4984884;28;20228;-89
2022/03/16 18:48:33;;;;;;;30.00;24.95;;;7.60;94.60;;;;;;4984236;28;20205;-88
2022/03/16 18:51:05;;;;;;;30.58;24.45;;;7.60;94.50;;;;;;4987378;28;20220;-87
2022/03/16 18:53:33;;;;;;;28.73;25.27;;;7.60;94.80;;;;;;4985479;28;20205;-89
2022/03/16 18:56:00;;;;;;;30.02;24.95;;;7.60;94.80;;;;;;4983558;28;20232;-89
2022/03/16 18:58:32;;;;;;;26.92;23.83;;;7.40;94.80;;;;;;4963726;28;20236;-89
2022/03/16 19:01:01;;;;;;;30.95;25.10;;;7.40;94.70;;;;;;4968665;28;20258;-89
2022/03/16 19:03:29;;;;;;;30.17;25.55;;;7.40;94.90;;;;;;4970311;28;20205;-88
2022/03/16 19:05:57;;;;;;;27.98;24.70;;;7.30;95.10;;;;;;4966662;28;20265;-93
2022/03/16 19:08:25;;;;;;;28.35;23.25;;;7.20;95.50;;;;;;4958563;29;20273;-92
2022/03/16 19:14:01;;;;;;;29.98;24.48;;;7.30;95.10;;;;;;4947633;29;20281;-88
2022/03/16 19:23:58;;;;;;;29.17;22.30;;;7.30;94.40;;;;;;4968377;28;20204;-88
2022/03/16 19:26:28;;;;;;;27.60;24.00;;;7.30;94.40;;;;;;4974990;28;20669;-90
2022/03/16 20:29:41;;;;;;;32.33;26.03;;;6.60;94.20;;;;;;5077919;23;20234;-89
2022/03/16 20:35:36;;;;;;;30.67;25.80;;;6.50;94.00;;;;;;5015781;28;20223;-89
2022/03/16 20:38:03;;;;;;;32.20;26.43;;;6.50;94.00;;;;;;5002811;28;20210;-90
2022/03/16 20:40:31;;;;;;;31.67;26.30;;;6.40;94.10;;;;;;5017423;28;20203;-90
2022/03/16 22:22:15;;;;;;;36.27;27.53;;;5.70;92.90;;;;;;5867843;23;20289;-87
2022/03/16 22:24:44;;;;;;;37.40;29.43;;;5.60;92.70;;;;;;5003420;28;20196;-87
